createdAt,value
2017-09-21T00:00:00.789Z,101788.94
2017-09-21T00:02:03.241Z,101777.78
2017-09-21T00:04:05.710Z,101778.20
2017-09-21T00:06:08.166Z,101778.28
2017-09-21T00:08:10.640Z,101784.53
2017-09-21T00:10:13.225Z,101782.61
2017-09-21T00:12:15.832Z,101784.81
2017-09-21T00:14:18.263Z,101782.19
2017-09-21T00:16:20.753Z,101775.94
2017-09-21T00:18:23.266Z,101777.86
2017-09-21T00:20:25.711Z,101775.08
2017-09-21T00:22:28.266Z,101782.61
2017-09-21T00:24:30.724Z,101776.28
2017-09-21T00:26:33.317Z,101777.52
2017-09-21T00:28:35.865Z,101778.55
2017-09-21T00:30:38.356Z,101771.46
2017-09-21T00:32:40.804Z,101778.70
2017-09-21T00:34:43.379Z,101771.96
2017-09-21T00:36:46.022Z,101774.08
2017-09-21T00:38:48.529Z,101775.94
2017-09-21T00:40:51.108Z,101775.27
2017-09-21T00:42:53.695Z,101774.66
2017-09-21T00:44:56.307Z,101773.39
2017-09-21T00:46:58.873Z,101772.14
2017-09-21T00:49:01.449Z,101780.98
2017-09-21T00:51:03.973Z,101776.20
2017-09-21T00:53:06.444Z,101775.77
2017-09-21T00:55:08.972Z,101771.72
2017-09-21T00:57:11.437Z,101769.77
2017-09-21T00:59:13.933Z,101771.03
2017-09-21T01:01:16.470Z,101763.28
2017-09-21T01:03:18.944Z,101762.01
2017-09-21T01:05:21.419Z,101764.28
2017-09-21T01:07:24.027Z,101755.26
2017-09-21T01:09:26.484Z,101763.28
2017-09-21T01:11:29.010Z,101771.38
2017-09-21T01:13:31.528Z,101770.30
2017-09-21T01:15:33.998Z,101770.19
2017-09-21T01:17:36.485Z,101769.34
2017-09-21T01:19:38.961Z,101771.72
2017-09-21T01:21:41.401Z,101767.33
2017-09-21T01:23:43.977Z,101763.62
2017-09-21T01:25:46.477Z,101767.25
2017-09-21T01:27:48.963Z,101759.57
2017-09-21T01:29:51.567Z,101760.22
2017-09-21T01:31:59.029Z,101762.61
2017-09-21T01:34:01.491Z,101758.87
2017-09-21T01:36:04.138Z,101760.92
2017-09-21T01:38:06.804Z,101760.22
2017-09-21T01:40:09.378Z,101760.65
2017-09-21T01:42:11.856Z,101766.05
2017-09-21T01:44:14.404Z,101761.08
2017-09-21T01:46:16.979Z,101765.55
2017-09-21T01:48:31.232Z,101758.87
2017-09-21T01:50:33.732Z,101766.55
2017-09-21T01:52:36.216Z,101764.38
2017-09-21T01:54:38.718Z,101757.28
2017-09-21T01:56:41.164Z,101763.53
2017-09-21T01:58:43.616Z,101763.70
2017-09-21T02:00:46.133Z,101765.63
2017-09-21T02:02:48.590Z,101760.65
2017-09-21T02:04:51.171Z,101766.55
2017-09-21T02:06:53.693Z,101764.81
2017-09-21T02:08:56.188Z,101762.69
2017-09-21T02:10:58.785Z,101763.77
2017-09-21T02:13:01.461Z,101763.19
2017-09-21T02:15:03.892Z,101760.14
2017-09-21T02:17:06.369Z,101764.61
2017-09-21T02:19:09.008Z,101762.52
2017-09-21T02:21:11.429Z,101774.67
2017-09-21T02:23:13.869Z,101771.78
2017-09-21T02:25:16.387Z,101779.39
2017-09-21T02:27:18.837Z,101778.89
2017-09-21T02:29:21.432Z,101776.77
2017-09-21T02:31:23.908Z,101777.69
2017-09-21T02:33:26.356Z,101771.05
2017-09-21T02:35:28.802Z,101766.89
2017-09-21T02:37:31.409Z,101767.81
2017-09-21T02:39:33.937Z,101767.42
2017-09-21T02:41:36.407Z,101766.15
2017-09-21T02:43:38.902Z,101762.17
2017-09-21T02:45:41.601Z,101764.30
2017-09-21T02:47:44.115Z,101759.91
2017-09-21T02:49:46.607Z,101763.45
2017-09-21T02:51:49.053Z,101758.20
2017-09-21T02:53:51.580Z,101764.52
2017-09-21T02:55:54.106Z,101763.17
2017-09-21T02:57:56.544Z,101762.33
2017-09-21T02:59:59.070Z,101768.23
2017-09-21T03:02:01.569Z,101767.73
2017-09-21T03:04:04.010Z,101765.45
2017-09-21T03:06:06.504Z,101763.68
2017-09-21T03:08:09.025Z,101765.61
2017-09-21T03:10:11.469Z,101765.18
2017-09-21T03:12:13.928Z,101761.55
2017-09-21T03:14:16.473Z,101760.13
2017-09-21T03:16:18.946Z,101761.91
2017-09-21T03:18:22.451Z,101760.48
2017-09-21T03:20:24.919Z,101761.98
2017-09-21T03:22:27.424Z,101768.03
2017-09-21T03:24:29.970Z,101769.30
2017-09-21T03:26:32.473Z,101761.70
2017-09-21T03:28:34.954Z,101768.03
2017-09-21T03:30:37.474Z,101765.33
2017-09-21T03:32:39.956Z,101764.91
2017-09-21T03:34:42.415Z,101758.69
2017-09-21T03:36:45.074Z,101757.84
2017-09-21T03:38:47.681Z,101762.63
2017-09-21T03:40:50.162Z,101761.20
2017-09-21T03:42:52.811Z,101755.14
2017-09-21T03:44:55.455Z,101757.42
2017-09-21T03:46:57.988Z,101752.95
2017-09-21T03:49:00.411Z,101758.84
2017-09-21T03:51:02.916Z,101747.05
2017-09-21T03:53:05.364Z,101756.14
2017-09-21T03:55:07.873Z,101752.44
2017-09-21T03:57:10.333Z,101753.70
2017-09-21T03:59:13.084Z,101758.68
2017-09-21T04:01:15.573Z,101760.38
2017-09-21T04:03:18.040Z,101759.53
2017-09-21T04:05:20.496Z,101758.83
2017-09-21T04:07:23.004Z,101758.07
2017-09-21T04:09:25.535Z,101757.92
2017-09-21T04:11:28.029Z,101764.32
2017-09-21T04:13:30.530Z,101763.82
2017-09-21T04:15:33.022Z,101765.17
2017-09-21T04:17:35.550Z,101767.95
2017-09-21T04:19:38.002Z,101756.72
2017-09-21T04:21:40.464Z,101760.38
2017-09-21T04:23:42.941Z,101762.45
2017-09-21T04:25:45.545Z,101764.49
2017-09-21T04:27:48.098Z,101762.80
2017-09-21T04:29:50.588Z,101762.88
2017-09-21T04:31:53.121Z,101766.61
2017-09-21T04:33:55.699Z,101763.91
2017-09-21T04:35:58.268Z,101764.92
2017-09-21T04:38:00.711Z,101766.61
2017-09-21T04:40:03.470Z,101765.58
2017-09-21T04:42:05.958Z,101766.93
2017-09-21T04:44:08.536Z,101767.28
2017-09-21T04:46:11.012Z,101767.28
2017-09-21T04:48:13.485Z,101770.13
2017-09-21T04:50:15.986Z,101774.28
2017-09-21T04:52:18.504Z,101772.83
2017-09-21T04:54:21.080Z,101773.78
2017-09-21T04:56:23.633Z,101770.04
2017-09-21T04:58:26.117Z,101772.42
2017-09-21T05:00:28.595Z,101771.50
2017-09-21T05:02:31.047Z,101773.70
2017-09-21T05:04:33.597Z,101766.17
2017-09-21T05:06:36.055Z,101770.58
2017-09-21T05:08:38.606Z,101775.29
2017-09-21T05:10:41.123Z,101770.39
2017-09-21T05:12:43.629Z,101769.73
2017-09-21T05:14:46.073Z,101769.31
2017-09-21T05:16:48.563Z,101764.14
2017-09-21T05:18:51.124Z,101762.90
2017-09-21T05:20:53.634Z,101760.85
2017-09-21T05:22:56.205Z,101765.60
2017-09-21T05:24:58.709Z,101770.89
2017-09-21T05:27:01.170Z,101757.82
2017-09-21T05:29:03.719Z,101755.55
2017-09-21T05:31:06.189Z,101760.59
2017-09-21T05:33:08.633Z,101756.55
2017-09-21T05:35:11.128Z,101768.11
2017-09-21T05:37:13.600Z,101773.78
2017-09-21T05:39:16.165Z,101776.98
2017-09-21T05:41:18.723Z,101773.52
2017-09-21T05:43:21.154Z,101768.80
2017-09-21T05:45:23.648Z,101773.86
2017-09-21T05:47:26.201Z,101770.31
2017-09-21T05:49:28.727Z,101766.93
2017-09-21T05:51:31.167Z,101772.44
2017-09-21T05:53:33.770Z,101774.80
2017-09-21T05:55:36.204Z,101779.94
2017-09-21T05:57:38.678Z,101775.63
2017-09-21T05:59:41.152Z,101776.98
2017-09-21T06:01:43.752Z,101781.10
2017-09-21T06:03:46.211Z,101779.86
2017-09-21T06:05:48.687Z,101784.66
2017-09-21T06:07:51.318Z,101776.98
2017-09-21T06:09:53.763Z,101774.75
2017-09-21T06:11:56.232Z,101772.37
2017-09-21T06:13:58.696Z,101777.55
2017-09-21T06:16:01.195Z,101776.17
2017-09-21T06:18:03.669Z,101777.38
2017-09-21T06:20:06.298Z,101778.03
2017-09-21T06:22:08.766Z,101777.11
2017-09-21T06:24:11.293Z,101775.95
2017-09-21T06:26:13.805Z,101779.16
2017-09-21T06:28:16.275Z,101781.83
2017-09-21T06:30:18.789Z,101775.42
2017-09-21T06:32:21.284Z,101776.63
2017-09-21T06:34:23.787Z,101774.42
2017-09-21T06:36:26.278Z,101773.23
2017-09-21T06:38:28.710Z,101774.93
2017-09-21T06:40:31.143Z,101773.66
2017-09-21T06:42:34.057Z,101770.72
2017-09-21T06:44:36.628Z,101774.92
2017-09-21T06:46:39.293Z,101774.16
2017-09-21T06:48:41.770Z,101773.15
2017-09-21T06:50:44.413Z,101777.36
2017-09-21T06:52:46.898Z,101775.43
2017-09-21T06:54:49.513Z,101785.73
2017-09-21T06:56:51.982Z,101772.38
2017-09-21T06:58:54.414Z,101772.80
2017-09-21T07:00:56.916Z,101775.42
2017-09-21T07:02:59.381Z,101774.84
2017-09-21T07:05:02.038Z,101771.05
2017-09-21T07:07:04.576Z,101772.73
2017-09-21T07:09:07.100Z,101777.70
2017-09-21T07:11:09.549Z,101776.34
2017-09-21T07:13:12.056Z,101779.75
2017-09-21T07:15:14.701Z,101779.83
2017-09-21T07:17:17.212Z,101777.97
2017-09-21T07:19:19.746Z,101786.08
2017-09-21T07:21:22.343Z,101780.25
2017-09-21T07:23:24.790Z,101781.58
2017-09-21T07:25:27.320Z,101788.75
2017-09-21T07:27:38.223Z,101789.17
2017-09-21T07:29:40.664Z,101785.63
2017-09-21T07:31:43.152Z,101783.02
2017-09-21T07:33:45.599Z,101790.19
2017-09-21T07:35:48.065Z,101787.99
2017-09-21T07:37:50.525Z,101789.03
2017-09-21T07:39:52.980Z,101790.80
2017-09-21T07:41:55.494Z,101796.52
2017-09-21T07:43:58.358Z,101794.25
2017-09-21T07:46:00.896Z,101796.52
2017-09-21T07:48:03.378Z,101803.70
2017-09-21T07:50:05.945Z,101802.86
2017-09-21T07:52:08.523Z,101804.13
2017-09-21T07:54:10.978Z,101812.31
2017-09-21T07:56:13.496Z,101816.95
2017-09-21T07:58:16.091Z,101807.06
2017-09-21T08:00:18.597Z,101809.53
2017-09-21T08:02:21.061Z,101810.62
2017-09-21T08:04:23.525Z,101806.56
2017-09-21T08:06:26.058Z,101808.08
2017-09-21T08:08:28.516Z,101810.27
2017-09-21T08:10:31.064Z,101802.17
2017-09-21T08:12:33.504Z,101808.77
2017-09-21T08:14:36.081Z,101803.10
2017-09-21T08:16:38.537Z,101810.02
2017-09-21T08:18:41.116Z,101804.62
2017-09-21T08:20:43.607Z,101805.12
2017-09-21T08:22:46.120Z,101804.19
2017-09-21T08:24:48.559Z,101806.89
2017-09-21T08:26:51.222Z,101806.63
2017-09-21T08:28:53.721Z,101810.61
2017-09-21T08:30:56.168Z,101801.15
2017-09-21T08:32:58.647Z,101800.99
2017-09-21T08:35:01.123Z,101808.48
2017-09-21T08:37:03.621Z,101803.50
2017-09-21T08:39:06.098Z,101804.09
2017-09-21T08:41:08.558Z,101808.64
2017-09-21T08:43:11.036Z,101809.19
2017-09-21T08:45:13.857Z,101804.52
2017-09-21T08:47:16.329Z,101804.44
2017-09-21T08:49:18.792Z,101807.30
2017-09-21T08:51:21.279Z,101804.33
2017-09-21T08:53:23.789Z,101800.38
2017-09-21T08:55:26.348Z,101793.63
2017-09-21T08:57:28.843Z,101800.81
2017-09-21T08:59:31.287Z,101797.26
2017-09-21T09:01:33.828Z,101791.00
2017-09-21T09:03:36.332Z,101791.34
2017-09-21T09:05:38.785Z,101796.06
2017-09-21T09:07:41.256Z,101793.02
2017-09-21T09:09:43.716Z,101786.68
2017-09-21T09:11:46.258Z,101789.34
2017-09-21T09:13:49.724Z,101788.98
2017-09-21T09:15:52.251Z,101787.22
2017-09-21T09:17:54.733Z,101783.73
2017-09-21T09:19:57.235Z,101779.69
2017-09-21T09:21:59.731Z,101780.11
2017-09-21T09:24:02.330Z,101783.93
2017-09-21T09:26:04.786Z,101776.55
2017-09-21T09:28:07.276Z,101783.16
2017-09-21T09:30:09.785Z,101778.17
2017-09-21T09:32:12.376Z,101775.89
2017-09-21T09:34:14.921Z,101768.63
2017-09-21T09:36:17.385Z,101767.70
2017-09-21T09:38:19.833Z,101767.02
2017-09-21T09:40:22.396Z,101757.28
2017-09-21T09:42:24.929Z,101756.55
2017-09-21T09:44:27.421Z,101764.23
2017-09-21T09:46:29.949Z,101765.16
2017-09-21T09:48:32.443Z,101754.58
2017-09-21T09:50:34.873Z,101755.50
2017-09-21T09:52:37.504Z,101754.57
2017-09-21T09:54:39.933Z,101754.00
2017-09-21T09:56:42.400Z,101754.08
2017-09-21T09:58:44.881Z,101751.56
2017-09-21T10:00:47.405Z,101754.27
2017-09-21T10:02:50.027Z,101756.08
2017-09-21T10:04:52.568Z,101755.58
2017-09-21T10:06:55.034Z,101757.78
2017-09-21T10:08:57.500Z,101755.16
2017-09-21T10:11:00.015Z,101750.44
2017-09-21T10:13:02.636Z,101748.66
2017-09-21T10:15:05.235Z,101744.68
2017-09-21T10:17:07.712Z,101746.95
2017-09-21T10:19:10.158Z,101745.95
2017-09-21T10:21:12.677Z,101738.07
2017-09-21T10:23:15.182Z,101739.27
2017-09-21T10:25:17.616Z,101735.86
2017-09-21T10:27:20.105Z,101735.52
2017-09-21T10:29:22.602Z,101732.15
2017-09-21T10:31:25.033Z,101738.56
2017-09-21T10:33:27.486Z,101730.11
2017-09-21T10:35:30.042Z,101735.29
2017-09-21T10:37:33.511Z,101733.09
2017-09-21T10:39:36.084Z,101731.81
2017-09-21T10:41:38.653Z,101732.43
2017-09-21T10:43:42.050Z,101731.46
2017-09-21T10:45:44.657Z,101726.32
2017-09-21T10:47:47.376Z,101727.67
2017-09-21T10:49:49.829Z,101727.75
2017-09-21T10:51:52.336Z,101722.77
2017-09-21T10:53:54.813Z,101727.74
2017-09-21T10:55:57.252Z,101726.03
2017-09-21T10:57:59.807Z,101722.98
2017-09-21T11:00:02.292Z,101726.20
2017-09-21T11:02:04.802Z,101724.84
2017-09-21T11:04:07.241Z,101725.42
2017-09-21T11:06:09.702Z,101721.98
2017-09-21T11:08:12.165Z,101719.70
2017-09-21T11:10:14.610Z,101719.70
2017-09-21T11:12:17.140Z,101717.98
2017-09-21T11:14:19.590Z,101708.33
2017-09-21T11:16:22.035Z,101705.63
2017-09-21T11:18:24.656Z,101706.55
2017-09-21T11:20:27.101Z,101703.69
2017-09-21T11:22:29.696Z,101705.89
2017-09-21T11:24:32.214Z,101704.62
2017-09-21T11:26:34.656Z,101703.77
2017-09-21T11:28:37.152Z,101706.62
2017-09-21T11:30:39.984Z,101706.23
2017-09-21T11:32:42.506Z,101696.16
2017-09-21T11:34:44.957Z,101690.94
2017-09-21T11:36:47.533Z,101695.49
2017-09-21T11:38:49.970Z,101693.45
2017-09-21T11:40:52.449Z,101688.81
2017-09-21T11:42:54.940Z,101691.09
2017-09-21T11:44:57.413Z,101683.83
2017-09-21T11:47:00.052Z,101681.28
2017-09-21T11:49:02.709Z,101681.42
2017-09-21T11:51:05.175Z,101676.44
2017-09-21T11:53:07.705Z,101676.71
2017-09-21T11:55:10.548Z,101677.83
2017-09-21T11:57:12.984Z,101667.34
2017-09-21T11:59:15.487Z,101668.19
2017-09-21T12:01:18.062Z,101665.91
2017-09-21T12:03:20.510Z,101659.84
2017-09-21T12:05:22.940Z,101664.55
2017-09-21T12:07:25.412Z,101663.13
2017-09-21T12:09:27.879Z,101661.75
2017-09-21T12:11:30.337Z,101661.05
2017-09-21T12:13:32.800Z,101654.20
2017-09-21T12:15:35.305Z,101659.96
2017-09-21T12:17:37.785Z,101655.34
2017-09-21T12:19:40.261Z,101648.90
2017-09-21T12:21:42.729Z,101645.38
2017-09-21T12:23:45.238Z,101644.02
2017-09-21T12:25:47.761Z,101651.80
2017-09-21T12:27:50.280Z,101654.91
2017-09-21T12:29:52.813Z,101652.03
2017-09-21T12:31:55.292Z,101647.80
2017-09-21T12:33:57.749Z,101650.94
2017-09-21T12:36:00.275Z,101643.24
2017-09-21T12:38:02.824Z,101641.05
2017-09-21T12:40:05.405Z,101638.48
2017-09-21T12:42:07.843Z,101637.15
2017-09-21T12:44:10.300Z,101639.86
2017-09-21T12:46:12.768Z,101635.08
2017-09-21T12:48:15.203Z,101640.70
2017-09-21T12:50:17.772Z,101641.34
2017-09-21T12:52:20.216Z,101637.22
2017-09-21T12:54:23.585Z,101638.48
2017-09-21T12:56:26.126Z,101633.14
2017-09-21T12:58:28.584Z,101635.84
2017-09-21T13:00:31.053Z,101629.86
2017-09-21T13:02:33.600Z,101631.22
2017-09-21T13:04:36.116Z,101629.08
2017-09-21T13:06:38.557Z,101624.68
2017-09-21T13:08:41.092Z,101619.39
2017-09-21T13:10:43.583Z,101621.27
2017-09-21T13:12:46.041Z,101615.00
2017-09-21T13:14:48.523Z,101615.85
2017-09-21T13:16:50.973Z,101618.26
2017-09-21T13:18:53.455Z,101617.86
2017-09-21T13:20:56.449Z,101616.93
2017-09-21T13:22:59.027Z,101619.81
2017-09-21T13:25:01.508Z,101610.50
2017-09-21T13:27:04.015Z,101613.72
2017-09-21T13:29:06.543Z,101612.94
2017-09-21T13:31:09.042Z,101604.39
2017-09-21T13:33:11.492Z,101608.37
2017-09-21T13:35:13.989Z,101608.98
2017-09-21T13:37:16.480Z,101605.24
2017-09-21T13:39:18.963Z,101602.81
2017-09-21T13:41:21.595Z,101597.89
2017-09-21T13:43:24.248Z,101599.73
2017-09-21T13:45:26.717Z,101594.40
2017-09-21T13:47:29.203Z,101597.45
2017-09-21T13:49:31.656Z,101595.33
2017-09-21T13:51:34.331Z,101596.26
2017-09-21T13:53:37.004Z,101597.95
2017-09-21T13:55:39.566Z,101594.91
2017-09-21T13:57:42.069Z,101594.91
2017-09-21T13:59:44.592Z,101593.45
2017-09-21T14:01:47.120Z,101599.45
2017-09-21T14:03:49.612Z,101595.31
2017-09-21T14:05:52.084Z,101594.30
2017-09-21T14:07:54.879Z,101589.39
2017-09-21T14:09:57.372Z,101590.91
2017-09-21T14:11:59.894Z,101591.59
2017-09-21T14:14:03.384Z,101586.27
2017-09-21T14:16:05.965Z,101587.36
2017-09-21T14:18:08.409Z,101586.28
2017-09-21T14:20:10.960Z,101587.55
2017-09-21T14:22:13.536Z,101582.80
2017-09-21T14:24:16.006Z,101589.47
2017-09-21T14:26:18.441Z,101582.63
2017-09-21T14:28:20.932Z,101585.39
2017-09-21T14:30:23.509Z,101583.36
2017-09-21T14:32:25.961Z,101579.05
2017-09-21T14:34:28.495Z,101573.64
2017-09-21T14:36:30.993Z,101570.59
2017-09-21T14:38:33.498Z,101575.92
2017-09-21T14:40:36.572Z,101569.95
2017-09-21T14:42:39.145Z,101570.17
2017-09-21T14:44:41.571Z,101566.53
2017-09-21T14:46:44.072Z,101570.67
2017-09-21T14:48:46.570Z,101562.42
2017-09-21T14:50:49.027Z,101563.91
2017-09-21T14:52:51.527Z,101568.91
2017-09-21T14:54:53.966Z,101564.25
2017-09-21T14:56:56.401Z,101557.77
2017-09-21T14:58:59.010Z,101563.75
2017-09-21T15:01:01.580Z,101562.22
2017-09-21T15:03:04.021Z,101562.05
2017-09-21T15:05:06.492Z,101559.69
2017-09-21T15:07:08.932Z,101557.04
2017-09-21T15:09:11.376Z,101552.13
2017-09-21T15:11:14.036Z,101556.62
2017-09-21T15:13:16.484Z,101558.95
2017-09-21T15:15:18.975Z,101550.58
2017-09-21T15:17:21.470Z,101554.64
2017-09-21T15:19:23.910Z,101556.28
2017-09-21T15:21:26.449Z,101553.48
2017-09-21T15:23:29.004Z,101552.98
2017-09-21T15:25:31.553Z,101556.48
2017-09-21T15:27:34.102Z,101560.53
2017-09-21T15:29:36.623Z,101556.64
2017-09-21T15:31:39.128Z,101556.00
2017-09-21T15:33:41.654Z,101556.64
2017-09-21T15:35:44.189Z,101558.70
2017-09-21T15:37:46.649Z,101560.64
2017-09-21T15:39:49.167Z,101556.95
2017-09-21T15:41:51.647Z,101554.61
2017-09-21T15:43:54.172Z,101550.72
2017-09-21T15:45:56.660Z,101552.13
2017-09-21T15:47:59.140Z,101552.52
2017-09-21T15:50:01.661Z,101549.31
2017-09-21T15:52:04.158Z,101553.00
2017-09-21T15:54:06.780Z,101550.66
2017-09-21T15:56:09.305Z,101545.49
2017-09-21T15:58:11.748Z,101547.05
2017-09-21T16:00:14.289Z,101543.49
2017-09-21T16:02:16.732Z,101540.65
2017-09-21T16:04:19.171Z,101547.16
2017-09-21T16:06:21.696Z,101549.85
2017-09-21T16:08:24.225Z,101544.89
2017-09-21T16:10:26.739Z,101548.95
2017-09-21T16:12:29.369Z,101548.37
2017-09-21T16:14:31.843Z,101549.50
2017-09-21T16:16:34.288Z,101546.30
2017-09-21T16:18:36.766Z,101545.75
2017-09-21T16:20:39.239Z,101551.64
2017-09-21T16:22:41.722Z,101546.48
2017-09-21T16:24:44.280Z,101545.81
2017-09-21T16:26:46.764Z,101549.27
2017-09-21T16:28:49.272Z,101548.25
2017-09-21T16:30:51.807Z,101550.80
2017-09-21T16:32:54.481Z,101554.78
2017-09-21T16:34:57.041Z,101549.69
2017-09-21T16:36:59.571Z,101550.55
2017-09-21T16:39:02.018Z,101545.06
2017-09-21T16:41:04.485Z,101542.86
2017-09-21T16:43:06.973Z,101549.12
2017-09-21T16:45:09.453Z,101551.73
2017-09-21T16:47:11.889Z,101553.67
2017-09-21T16:49:14.418Z,101549.14
2017-09-21T16:51:17.010Z,101554.66
2017-09-21T16:53:19.594Z,101548.83
2017-09-21T16:55:22.219Z,101550.77
2017-09-21T16:57:24.664Z,101555.75
2017-09-21T16:59:27.225Z,101561.23
2017-09-21T17:01:29.715Z,101559.89
2017-09-21T17:03:32.167Z,101557.52
2017-09-21T17:05:34.721Z,101555.02
2017-09-21T17:07:37.241Z,101555.44
2017-09-21T17:09:39.701Z,101553.91
2017-09-21T17:11:42.152Z,101557.03
2017-09-21T17:13:44.676Z,101550.89
2017-09-21T17:15:47.140Z,101555.27
2017-09-21T17:17:49.618Z,101559.09
2017-09-21T17:19:52.151Z,101562.77
2017-09-21T17:21:54.614Z,101559.22
2017-09-21T17:23:57.059Z,101561.50
2017-09-21T17:25:59.604Z,101563.27
2017-09-21T17:28:02.034Z,101563.78
2017-09-21T17:30:04.569Z,101563.70
2017-09-21T17:32:07.031Z,101560.62
2017-09-21T17:34:09.469Z,101565.59
2017-09-21T17:36:11.948Z,101566.19
2017-09-21T17:38:14.497Z,101567.95
2017-09-21T17:40:17.031Z,101575.72
2017-09-21T17:42:19.471Z,101571.25
2017-09-21T17:44:21.928Z,101573.02
2017-09-21T17:46:24.408Z,101574.72
2017-09-21T17:48:26.845Z,101570.16
2017-09-21T17:50:29.775Z,101579.27
2017-09-21T17:52:32.217Z,101574.88
2017-09-21T17:54:34.652Z,101574.45
2017-09-21T17:56:37.342Z,101571.75
2017-09-21T17:58:39.802Z,101574.14
2017-09-21T18:00:42.248Z,101575.49
2017-09-21T18:02:44.777Z,101574.22
2017-09-21T18:04:47.235Z,101570.33
2017-09-21T18:06:49.685Z,101572.53
2017-09-21T18:08:52.161Z,101571.09
2017-09-21T18:10:54.628Z,101579.20
2017-09-21T18:12:57.073Z,101577.00
2017-09-21T18:14:59.627Z,101579.22
2017-09-21T18:17:02.125Z,101579.98
2017-09-21T18:19:04.670Z,101584.54
2017-09-21T18:21:07.132Z,101580.48
2017-09-21T18:23:09.569Z,101577.78
2017-09-21T18:25:12.015Z,101582.34
2017-09-21T18:27:14.485Z,101584.54
2017-09-21T18:29:17.023Z,101580.99
2017-09-21T18:31:19.478Z,101585.55
2017-09-21T18:33:22.005Z,101591.56
2017-09-21T18:35:24.523Z,101586.66
2017-09-21T18:37:27.111Z,101589.44
2017-09-21T18:39:29.579Z,101589.30
2017-09-21T18:41:32.259Z,101587.59
2017-09-21T18:43:35.196Z,101588.79
2017-09-21T18:45:38.203Z,101592.30
2017-09-21T18:47:40.999Z,101589.60
2017-09-21T18:49:44.558Z,101595.70
2017-09-21T18:51:47.224Z,101594.27
2017-09-21T18:53:50.014Z,101599.25
2017-09-21T18:55:52.922Z,101591.14
2017-09-21T18:57:57.444Z,101597.05
2017-09-21T18:59:59.968Z,101597.55
2017-09-21T19:02:02.432Z,101592.23
2017-09-21T19:04:04.946Z,101590.07
2017-09-21T19:06:07.462Z,101590.46
2017-09-21T19:08:11.487Z,101590.07
2017-09-21T19:10:13.998Z,101594.01
2017-09-21T19:12:16.434Z,101591.65
2017-09-21T19:14:18.899Z,101593.78
2017-09-21T19:16:21.515Z,101596.06
2017-09-21T19:18:23.944Z,101599.69
2017-09-21T19:20:26.528Z,101604.59
2017-09-21T19:22:29.005Z,101602.81
2017-09-21T19:24:31.439Z,101603.31
2017-09-21T19:26:33.906Z,101599.84
2017-09-21T19:28:36.375Z,101603.81
2017-09-21T19:30:38.828Z,101598.77
2017-09-21T19:32:41.290Z,101590.81
2017-09-21T19:34:43.776Z,101594.70
2017-09-21T19:36:46.225Z,101602.47
2017-09-21T19:38:48.790Z,101605.17
2017-09-21T19:40:51.362Z,101598.11
2017-09-21T19:42:53.832Z,101604.86
2017-09-21T19:44:56.270Z,101601.03
2017-09-21T19:46:58.785Z,101603.08
2017-09-21T19:49:01.237Z,101600.80
2017-09-21T19:51:03.755Z,101602.89
2017-09-21T19:53:06.292Z,101591.23
2017-09-21T19:55:08.774Z,101595.14
2017-09-21T19:57:11.269Z,101600.27
2017-09-21T19:59:13.901Z,101607.56
2017-09-21T20:01:16.342Z,101604.02
2017-09-21T20:03:18.814Z,101605.09
2017-09-21T20:05:21.346Z,101604.17
2017-09-21T20:07:23.782Z,101606.87
2017-09-21T20:09:26.273Z,101598.53
2017-09-21T20:11:28.767Z,101609.42
2017-09-21T20:13:31.227Z,101610.08
2017-09-21T20:15:33.782Z,101611.19
2017-09-21T20:17:36.252Z,101609.34
2017-09-21T20:19:38.701Z,101609.73
2017-09-21T20:21:41.147Z,101617.60
2017-09-21T20:23:43.600Z,101615.59
2017-09-21T20:25:46.117Z,101614.24
2017-09-21T20:27:48.625Z,101612.63
2017-09-21T20:29:51.113Z,101614.13
2017-09-21T20:31:53.552Z,101615.84
2017-09-21T20:33:56.008Z,101617.95
2017-09-21T20:35:58.469Z,101619.65
2017-09-21T20:38:00.938Z,101630.34
2017-09-21T20:40:03.460Z,101636.67
2017-09-21T20:42:05.925Z,101631.12
2017-09-21T20:44:08.451Z,101632.31
2017-09-21T20:46:10.889Z,101631.55
2017-09-21T20:48:13.421Z,101627.06
2017-09-21T20:50:15.944Z,101631.04
2017-09-21T20:52:18.436Z,101626.56
2017-09-21T20:54:20.943Z,101630.80
2017-09-21T20:56:23.404Z,101629.11
2017-09-21T20:58:25.901Z,101627.56
2017-09-21T21:00:28.466Z,101632.16
2017-09-21T21:02:30.940Z,101628.53
2017-09-21T21:04:33.459Z,101633.24
2017-09-21T21:06:35.959Z,101630.12
2017-09-21T21:08:38.419Z,101632.39
2017-09-21T21:10:40.927Z,101629.19
2017-09-21T21:12:43.393Z,101628.27
2017-09-21T21:14:45.828Z,101627.61
2017-09-21T21:16:48.386Z,101630.12
2017-09-21T21:18:50.955Z,101626.06
2017-09-21T21:20:53.388Z,101629.53
2017-09-21T21:22:55.850Z,101628.77
2017-09-21T21:24:58.350Z,101630.55
2017-09-21T21:27:00.836Z,101630.97
2017-09-21T21:29:03.419Z,101631.81
2017-09-21T21:31:05.977Z,101631.89
2017-09-21T21:33:08.456Z,101632.39
2017-09-21T21:35:10.898Z,101634.36
2017-09-21T21:37:13.386Z,101634.02
2017-09-21T21:39:15.841Z,101636.38
2017-09-21T21:41:18.271Z,101635.02
2017-09-21T21:43:20.732Z,101640.08
2017-09-21T21:45:23.214Z,101636.13
2017-09-21T21:47:25.742Z,101636.95
2017-09-21T21:49:28.317Z,101641.93
2017-09-21T21:51:30.783Z,101637.56
2017-09-21T21:53:33.529Z,101641.27
2017-09-21T21:55:36.005Z,101639.58
2017-09-21T21:57:38.501Z,101647.18
2017-09-21T21:59:40.941Z,101649.14
2017-09-21T22:01:43.576Z,101646.25
2017-09-21T22:03:46.041Z,101644.48
2017-09-21T22:05:48.592Z,101646.87
2017-09-21T22:07:51.065Z,101648.22
2017-09-21T22:09:53.636Z,101641.12
2017-09-21T22:11:56.078Z,101643.31
2017-09-21T22:13:58.537Z,101643.74
2017-09-21T22:16:00.996Z,101646.44
2017-09-21T22:18:03.424Z,101646.95
2017-09-21T22:20:05.891Z,101646.02
2017-09-21T22:22:08.323Z,101642.39
2017-09-21T22:24:10.861Z,101640.20
2017-09-21T22:26:13.371Z,101637.41
2017-09-21T22:28:15.873Z,101637.41
2017-09-21T22:30:18.333Z,101632.94
2017-09-21T22:32:20.862Z,101635.22
2017-09-21T22:34:23.318Z,101633.94
2017-09-21T22:36:25.780Z,101629.55
2017-09-21T22:38:28.315Z,101636.91
2017-09-21T22:40:30.807Z,101637.41
2017-09-21T22:42:33.357Z,101635.56
2017-09-21T22:44:35.828Z,101639.27
2017-09-21T22:46:38.300Z,101640.27
2017-09-21T22:48:40.812Z,101645.60
2017-09-21T22:50:43.328Z,101644.09
2017-09-21T22:52:45.771Z,101642.20
2017-09-21T22:54:48.203Z,101644.09
2017-09-21T22:56:50.960Z,101641.78
2017-09-21T22:58:53.532Z,101642.55
2017-09-21T23:00:55.975Z,101647.95
2017-09-21T23:02:58.519Z,101648.80
2017-09-21T23:05:00.975Z,101648.03
2017-09-21T23:07:03.420Z,101648.45
2017-09-21T23:09:05.968Z,101649.49
2017-09-21T23:11:08.454Z,101651.50
2017-09-21T23:13:11.027Z,101648.80
2017-09-21T23:15:13.479Z,101646.95
2017-09-21T23:17:15.963Z,101644.59